sensor_id;sensor_type;location;lat;lon;timestamp;P1;durP1;ratioP1;P2;durP2;ratioP2
30149;SDS011;16962;48.646;9.026;2023-04-08T01:12:10;36.78;;;20.13;;
30149;SDS011;16962;48.646;9.026;2023-04-08T05:45:54;51.53;;;28.27;;
30149;SDS011;16962;48.646;9.026;2023-04-08T05:49:11;57.20;;;29.45;;
30149;SDS011;16962;48.646;9.026;2023-04-08T05:53:10;52.47;;;28.55;;
30149;SDS011;16962;48.646;9.026;2023-04-08T06:12:41;39.22;;;24.10;;
30149;SDS011;16962;48.646;9.026;2023-04-08T06:16:13;39.13;;;23.42;;
30149;SDS011;16962;48.646;9.026;2023-04-08T06:19:06;33.08;;;21.95;;
30149;SDS011;16962;48.646;9.026;2023-04-08T06:30:19;26.60;;;17.58;;
30149;SDS011;16962;48.646;9.026;2023-04-08T06:41:58;18.42;;;12.38;;
30149;SDS011;16962;48.646;9.026;2023-04-08T06:45:15;20.13;;;13.75;;
30149;SDS011;16962;48.646;9.026;2023-04-08T06:51:49;23.08;;;13.63;;
30149;SDS011;16962;48.646;9.026;2023-04-08T06:55:30;20.52;;;13.48;;
30149;SDS011;16962;48.646;9.026;2023-04-08T06:59:05;21.33;;;14.35;;
30149;SDS011;16962;48.646;9.026;2023-04-08T07:02:36;20.00;;;13.68;;
30149;SDS011;16962;48.646;9.026;2023-04-08T07:05:31;19.58;;;13.70;;
30149;SDS011;16962;48.646;9.026;2023-04-08T07:08:26;20.45;;;13.73;;
30149;SDS011;16962;48.646;9.026;2023-04-08T07:11:31;18.02;;;13.25;;
30149;SDS011;16962;48.646;9.026;2023-04-08T07:14:48;17.33;;;12.63;;
30149;SDS011;16962;48.646;9.026;2023-04-08T07:26:18;14.40;;;11.23;;
30149;SDS011;16962;48.646;9.026;2023-04-08T07:41:51;15.10;;;10.10;;
30149;SDS011;16962;48.646;9.026;2023-04-08T07:45:05;13.88;;;10.38;;
30149;SDS011;16962;48.646;9.026;2023-04-08T07:55:39;16.42;;;10.57;;
30149;SDS011;16962;48.646;9.026;2023-04-08T07:58:43;14.18;;;10.40;;
30149;SDS011;16962;48.646;9.026;2023-04-08T08:01:37;16.30;;;10.30;;
30149;SDS011;16962;48.646;9.026;2023-04-08T08:04:27;13.50;;;10.07;;
30149;SDS011;16962;48.646;9.026;2023-04-08T08:07:15;13.90;;;10.52;;
30149;SDS011;16962;48.646;9.026;2023-04-08T08:10:03;14.88;;;10.55;;
30149;SDS011;16962;48.646;9.026;2023-04-08T08:13:11;16.42;;;11.02;;
30149;SDS011;16962;48.646;9.026;2023-04-08T08:16:08;12.57;;;9.77;;
30149;SDS011;16962;48.646;9.026;2023-04-08T08:27:13;13.10;;;9.77;;
30149;SDS011;16962;48.646;9.026;2023-04-08T08:30:09;14.27;;;8.88;;
30149;SDS011;16962;48.646;9.026;2023-04-08T08:33:02;15.95;;;10.05;;
30149;SDS011;16962;48.646;9.026;2023-04-08T08:40:12;12.38;;;9.70;;
30149;SDS011;16962;48.646;9.026;2023-04-08T08:43:36;16.42;;;10.55;;
30149;SDS011;16962;48.646;9.026;2023-04-08T08:46:45;12.88;;;10.18;;
30149;SDS011;16962;48.646;9.026;2023-04-08T08:53:29;16.13;;;10.43;;
30149;SDS011;16962;48.646;9.026;2023-04-08T08:56:31;13.88;;;10.73;;
30149;SDS011;16962;48.646;9.026;2023-04-08T09:00:39;15.73;;;10.20;;
30149;SDS011;16962;48.646;9.026;2023-04-08T09:04:14;14.90;;;11.18;;
30149;SDS011;16962;48.646;9.026;2023-04-08T09:08:09;17.65;;;11.82;;
30149;SDS011;16962;48.646;9.026;2023-04-08T09:37:01;14.18;;;10.82;;
30149;SDS011;16962;48.646;9.026;2023-04-08T09:40:12;13.82;;;10.90;;
30149;SDS011;16962;48.646;9.026;2023-04-08T09:43:03;13.05;;;11.57;;
30149;SDS011;16962;48.646;9.026;2023-04-08T09:45:55;15.07;;;11.82;;
30149;SDS011;16962;48.646;9.026;2023-04-08T09:48:54;13.20;;;10.13;;
30149;SDS011;16962;48.646;9.026;2023-04-08T09:52:00;12.88;;;10.40;;
30149;SDS011;16962;48.646;9.026;2023-04-08T09:55:04;14.02;;;10.60;;
30149;SDS011;16962;48.646;9.026;2023-04-08T09:57:57;15.40;;;10.88;;
30149;SDS011;16962;48.646;9.026;2023-04-08T10:00:48;14.90;;;11.07;;
30149;SDS011;16962;48.646;9.026;2023-04-08T10:03:39;14.05;;;11.65;;
30149;SDS011;16962;48.646;9.026;2023-04-08T10:06:31;16.63;;;11.65;;
30149;SDS011;16962;48.646;9.026;2023-04-08T10:09:23;13.82;;;11.05;;
30149;SDS011;16962;48.646;9.026;2023-04-08T10:12:12;15.18;;;11.15;;
30149;SDS011;16962;48.646;9.026;2023-04-08T10:21:00;17.67;;;12.07;;
30149;SDS011;16962;48.646;9.026;2023-04-08T10:23:57;17.90;;;11.70;;
30149;SDS011;16962;48.646;9.026;2023-04-08T10:26:46;14.02;;;11.27;;
30149;SDS011;16962;48.646;9.026;2023-04-08T10:29:36;16.17;;;11.82;;
30149;SDS011;16962;48.646;9.026;2023-04-08T10:32:28;16.02;;;11.52;;
30149;SDS011;16962;48.646;9.026;2023-04-08T10:35:16;16.45;;;12.68;;
30149;SDS011;16962;48.646;9.026;2023-04-08T10:38:07;14.20;;;10.35;;
30149;SDS011;16962;48.646;9.026;2023-04-08T10:40:55;15.40;;;11.65;;
30149;SDS011;16962;48.646;9.026;2023-04-08T10:43:44;16.08;;;11.70;;
30149;SDS011;16962;48.646;9.026;2023-04-08T10:46:36;13.18;;;10.20;;
30149;SDS011;16962;48.646;9.026;2023-04-08T10:49:33;13.13;;;10.57;;
30149;SDS011;16962;48.646;9.026;2023-04-08T10:52:29;14.75;;;10.82;;
30149;SDS011;16962;48.646;9.026;2023-04-08T10:55:33;13.82;;;10.80;;
30149;SDS011;16962;48.646;9.026;2023-04-08T10:58:30;13.73;;;11.15;;
30149;SDS011;16962;48.646;9.026;2023-04-08T11:01:18;15.75;;;11.70;;
30149;SDS011;16962;48.646;9.026;2023-04-08T11:04:06;17.65;;;12.48;;
30149;SDS011;16962;48.646;9.026;2023-04-08T11:06:59;16.35;;;13.02;;
30149;SDS011;16962;48.646;9.026;2023-04-08T11:09:53;17.33;;;12.32;;
30149;SDS011;16962;48.646;9.026;2023-04-08T11:12:44;18.60;;;12.98;;
30149;SDS011;16962;48.646;9.026;2023-04-08T11:15:32;20.88;;;12.88;;
30149;SDS011;16962;48.646;9.026;2023-04-08T11:29:43;17.45;;;13.27;;
30149;SDS011;16962;48.646;9.026;2023-04-08T11:32:40;18.25;;;13.18;;
30149;SDS011;16962;48.646;9.026;2023-04-08T11:35:28;17.63;;;13.52;;
30149;SDS011;16962;48.646;9.026;2023-04-08T11:38:21;19.65;;;13.98;;
30149;SDS011;16962;48.646;9.026;2023-04-08T11:41:10;18.33;;;13.75;;
30149;SDS011;16962;48.646;9.026;2023-04-08T11:44:00;18.27;;;12.68;;
30149;SDS011;16962;48.646;9.026;2023-04-08T11:46:53;17.58;;;12.48;;
30149;SDS011;16962;48.646;9.026;2023-04-08T11:49:42;18.95;;;14.25;;
30149;SDS011;16962;48.646;9.026;2023-04-08T11:56:45;20.50;;;14.52;;
30149;SDS011;16962;48.646;9.026;2023-04-08T11:59:40;19.65;;;14.80;;
30149;SDS011;16962;48.646;9.026;2023-04-08T12:02:28;19.33;;;15.15;;
30149;SDS011;16962;48.646;9.026;2023-04-08T12:05:16;21.08;;;15.35;;
30149;SDS011;16962;48.646;9.026;2023-04-08T12:08:04;20.23;;;15.32;;
30149;SDS011;16962;48.646;9.026;2023-04-08T12:10:53;19.17;;;13.73;;
30149;SDS011;16962;48.646;9.026;2023-04-08T12:13:58;19.33;;;14.20;;
30149;SDS011;16962;48.646;9.026;2023-04-08T12:16:47;19.23;;;13.57;;
30149;SDS011;16962;48.646;9.026;2023-04-08T12:19:37;21.35;;;13.90;;
30149;SDS011;16962;48.646;9.026;2023-04-08T12:22:24;19.70;;;13.90;;
30149;SDS011;16962;48.646;9.026;2023-04-08T12:25:15;18.73;;;14.18;;
30149;SDS011;16962;48.646;9.026;2023-04-08T12:28:05;17.33;;;13.38;;
30149;SDS011;16962;48.646;9.026;2023-04-08T12:30:57;22.65;;;13.77;;
30149;SDS011;16962;48.646;9.026;2023-04-08T12:36:44;24.58;;;12.75;;
30149;SDS011;16962;48.646;9.026;2023-04-08T12:39:34;18.65;;;13.68;;
30149;SDS011;16962;48.646;9.026;2023-04-08T12:42:24;18.80;;;13.63;;
30149;SDS011;16962;48.646;9.026;2023-04-08T12:45:14;18.17;;;13.63;;
30149;SDS011;16962;48.646;9.026;2023-04-08T12:48:02;18.08;;;12.60;;
30149;SDS011;16962;48.646;9.026;2023-04-08T12:50:54;15.95;;;12.00;;
30149;SDS011;16962;48.646;9.026;2023-04-08T12:53:53;17.75;;;13.65;;
30149;SDS011;16962;48.646;9.026;2023-04-08T12:56:44;17.92;;;13.65;;
30149;SDS011;16962;48.646;9.026;2023-04-08T12:59:34;16.15;;;13.18;;
30149;SDS011;16962;48.646;9.026;2023-04-08T13:02:23;16.55;;;12.98;;
30149;SDS011;16962;48.646;9.026;2023-04-08T13:05:16;20.23;;;13.63;;
30149;SDS011;16962;48.646;9.026;2023-04-08T13:08:11;20.83;;;14.48;;
30149;SDS011;16962;48.646;9.026;2023-04-08T13:10:59;20.10;;;13.93;;
30149;SDS011;16962;48.646;9.026;2023-04-08T13:13:47;18.83;;;14.52;;
30149;SDS011;16962;48.646;9.026;2023-04-08T13:16:35;19.30;;;13.82;;
30149;SDS011;16962;48.646;9.026;2023-04-08T13:19:25;20.60;;;14.95;;
30149;SDS011;16962;48.646;9.026;2023-04-08T13:22:13;22.20;;;14.18;;
30149;SDS011;16962;48.646;9.026;2023-04-08T13:25:01;20.95;;;14.25;;
30149;SDS011;16962;48.646;9.026;2023-04-08T13:27:53;21.63;;;14.50;;
30149;SDS011;16962;48.646;9.026;2023-04-08T13:30:41;19.35;;;15.13;;
30149;SDS011;16962;48.646;9.026;2023-04-08T13:33:29;20.85;;;14.63;;
30149;SDS011;16962;48.646;9.026;2023-04-08T13:36:20;20.67;;;14.80;;
30149;SDS011;16962;48.646;9.026;2023-04-08T13:39:08;19.77;;;14.05;;
30149;SDS011;16962;48.646;9.026;2023-04-08T13:41:56;23.02;;;15.15;;
30149;SDS011;16962;48.646;9.026;2023-04-08T13:44:45;19.25;;;14.18;;
30149;SDS011;16962;48.646;9.026;2023-04-08T13:47:33;20.08;;;15.38;;
30149;SDS011;16962;48.646;9.026;2023-04-08T13:50:25;21.15;;;14.70;;
30149;SDS011;16962;48.646;9.026;2023-04-08T13:53:13;17.23;;;14.48;;
30149;SDS011;16962;48.646;9.026;2023-04-08T13:56:03;19.23;;;14.32;;
30149;SDS011;16962;48.646;9.026;2023-04-08T13:58:51;17.60;;;14.50;;
30149;SDS011;16962;48.646;9.026;2023-04-08T14:01:43;18.38;;;13.63;;
30149;SDS011;16962;48.646;9.026;2023-04-08T14:04:30;18.27;;;14.05;;
30149;SDS011;16962;48.646;9.026;2023-04-08T14:07:18;18.48;;;14.82;;
30149;SDS011;16962;48.646;9.026;2023-04-08T14:10:06;18.95;;;14.60;;
30149;SDS011;16962;48.646;9.026;2023-04-08T14:12:54;18.73;;;13.93;;
30149;SDS011;16962;48.646;9.026;2023-04-08T14:15:43;21.35;;;13.93;;
30149;SDS011;16962;48.646;9.026;2023-04-08T14:18:32;18.92;;;13.90;;
30149;SDS011;16962;48.646;9.026;2023-04-08T14:21:21;19.90;;;14.02;;
30149;SDS011;16962;48.646;9.026;2023-04-08T14:24:08;19.75;;;13.82;;
30149;SDS011;16962;48.646;9.026;2023-04-08T14:26:58;18.23;;;13.95;;
30149;SDS011;16962;48.646;9.026;2023-04-08T14:29:47;19.77;;;13.65;;
30149;SDS011;16962;48.646;9.026;2023-04-08T14:32:34;20.75;;;14.23;;
30149;SDS011;16962;48.646;9.026;2023-04-08T14:35:22;17.38;;;13.80;;
30149;SDS011;16962;48.646;9.026;2023-04-08T14:38:09;20.00;;;13.88;;
30149;SDS011;16962;48.646;9.026;2023-04-08T14:40:57;15.50;;;12.35;;
30149;SDS011;16962;48.646;9.026;2023-04-08T14:43:44;18.20;;;13.88;;
30149;SDS011;16962;48.646;9.026;2023-04-08T14:46:32;16.33;;;13.63;;
30149;SDS011;16962;48.646;9.026;2023-04-08T14:49:24;17.20;;;13.27;;
30149;SDS011;16962;48.646;9.026;2023-04-08T14:52:11;17.08;;;13.30;;
30149;SDS011;16962;48.646;9.026;2023-04-08T14:54:58;18.25;;;13.38;;
30149;SDS011;16962;48.646;9.026;2023-04-08T14:57:46;21.38;;;13.48;;
30149;SDS011;16962;48.646;9.026;2023-04-08T15:00:36;19.50;;;13.05;;
30149;SDS011;16962;48.646;9.026;2023-04-08T15:03:24;17.35;;;13.48;;
30149;SDS011;16962;48.646;9.026;2023-04-08T15:06:13;21.10;;;14.43;;
30149;SDS011;16962;48.646;9.026;2023-04-08T15:09:03;18.85;;;13.85;;
30149;SDS011;16962;48.646;9.026;2023-04-08T15:11:53;18.25;;;13.48;;
30149;SDS011;16962;48.646;9.026;2023-04-08T15:14:43;22.33;;;13.95;;
30149;SDS011;16962;48.646;9.026;2023-04-08T15:17:31;17.90;;;13.38;;
30149;SDS011;16962;48.646;9.026;2023-04-08T15:20:19;18.63;;;13.48;;
30149;SDS011;16962;48.646;9.026;2023-04-08T15:23:07;17.90;;;12.45;;
30149;SDS011;16962;48.646;9.026;2023-04-08T15:25:55;16.67;;;12.43;;
30149;SDS011;16962;48.646;9.026;2023-04-08T15:28:45;18.45;;;12.70;;
30149;SDS011;16962;48.646;9.026;2023-04-08T15:31:35;19.58;;;13.57;;
30149;SDS011;16962;48.646;9.026;2023-04-08T15:34:23;17.42;;;12.77;;
30149;SDS011;16962;48.646;9.026;2023-04-08T15:37:16;16.65;;;13.27;;
30149;SDS011;16962;48.646;9.026;2023-04-08T15:40:04;15.57;;;12.02;;
30149;SDS011;16962;48.646;9.026;2023-04-08T15:42:53;17.58;;;12.38;;
30149;SDS011;16962;48.646;9.026;2023-04-08T15:45:44;15.52;;;11.95;;
30149;SDS011;16962;48.646;9.026;2023-04-08T15:48:32;15.23;;;11.43;;
30149;SDS011;16962;48.646;9.026;2023-04-08T15:51:20;18.10;;;13.35;;
30149;SDS011;16962;48.646;9.026;2023-04-08T15:54:10;20.25;;;12.68;;
30149;SDS011;16962;48.646;9.026;2023-04-08T15:56:57;19.98;;;13.73;;
30149;SDS011;16962;48.646;9.026;2023-04-08T15:59:45;22.35;;;14.32;;
30149;SDS011;16962;48.646;9.026;2023-04-08T16:02:33;17.65;;;13.85;;
30149;SDS011;16962;48.646;9.026;2023-04-08T16:05:21;18.88;;;12.93;;
30149;SDS011;16962;48.646;9.026;2023-04-08T16:08:09;15.75;;;11.68;;
30149;SDS011;16962;48.646;9.026;2023-04-08T16:10:58;18.65;;;12.13;;
30149;SDS011;16962;48.646;9.026;2023-04-08T16:13:50;16.05;;;11.80;;
30149;SDS011;16962;48.646;9.026;2023-04-08T16:16:40;15.05;;;9.93;;
30149;SDS011;16962;48.646;9.026;2023-04-08T16:22:18;13.88;;;9.30;;
30149;SDS011;16962;48.646;9.026;2023-04-08T16:25:06;15.02;;;9.80;;
30149;SDS011;16962;48.646;9.026;2023-04-08T16:27:53;17.27;;;9.73;;
30149;SDS011;16962;48.646;9.026;2023-04-08T16:30:40;12.15;;;8.80;;
30149;SDS011;16962;48.646;9.026;2023-04-08T16:33:30;11.15;;;8.32;;
30149;SDS011;16962;48.646;9.026;2023-04-08T16:36:17;10.25;;;8.18;;
30149;SDS011;16962;48.646;9.026;2023-04-08T16:39:06;13.10;;;8.40;;
30149;SDS011;16962;48.646;9.026;2023-04-08T16:41:53;13.73;;;9.38;;
30149;SDS011;16962;48.646;9.026;2023-04-08T16:44:41;9.35;;;7.65;;
30149;SDS011;16962;48.646;9.026;2023-04-08T16:47:28;11.95;;;8.70;;
30149;SDS011;16962;48.646;9.026;2023-04-08T16:50:16;11.45;;;8.10;;
30149;SDS011;16962;48.646;9.026;2023-04-08T16:53:04;9.77;;;7.35;;
30149;SDS011;16962;48.646;9.026;2023-04-08T16:55:51;12.25;;;7.82;;
30149;SDS011;16962;48.646;9.026;2023-04-08T16:58:40;11.07;;;7.60;;
30149;SDS011;16962;48.646;9.026;2023-04-08T17:01:31;12.77;;;8.35;;
30149;SDS011;16962;48.646;9.026;2023-04-08T17:04:18;9.70;;;8.00;;
30149;SDS011;16962;48.646;9.026;2023-04-08T17:07:08;8.70;;;7.32;;
30149;SDS011;16962;48.646;9.026;2023-04-08T17:10:00;12.65;;;7.70;;
30149;SDS011;16962;48.646;9.026;2023-04-08T17:12:48;9.80;;;7.05;;
30149;SDS011;16962;48.646;9.026;2023-04-08T17:15:35;12.60;;;7.18;;
30149;SDS011;16962;48.646;9.026;2023-04-08T17:18:23;14.07;;;7.43;;
30149;SDS011;16962;48.646;9.026;2023-04-08T17:21:11;13.02;;;8.18;;
30149;SDS011;16962;48.646;9.026;2023-04-08T17:23:59;11.18;;;8.07;;
30149;SDS011;16962;48.646;9.026;2023-04-08T17:26:47;9.43;;;7.35;;
30149;SDS011;16962;48.646;9.026;2023-04-08T17:29:35;8.75;;;6.32;;
30149;SDS011;16962;48.646;9.026;2023-04-08T17:32:23;12.88;;;8.25;;
30149;SDS011;16962;48.646;9.026;2023-04-08T17:35:13;13.93;;;8.50;;
30149;SDS011;16962;48.646;9.026;2023-04-08T17:38:00;10.00;;;7.63;;
30149;SDS011;16962;48.646;9.026;2023-04-08T17:40:48;11.75;;;7.70;;
30149;SDS011;16962;48.646;9.026;2023-04-08T17:43:37;9.38;;;7.22;;
30149;SDS011;16962;48.646;9.026;2023-04-08T17:46:25;12.25;;;7.82;;
30149;SDS011;16962;48.646;9.026;2023-04-08T17:49:13;10.52;;;8.10;;
30149;SDS011;16962;48.646;9.026;2023-04-08T17:52:03;12.48;;;7.93;;
30149;SDS011;16962;48.646;9.026;2023-04-08T17:54:52;9.18;;;7.68;;
30149;SDS011;16962;48.646;9.026;2023-04-08T17:57:40;11.00;;;7.55;;
30149;SDS011;16962;48.646;9.026;2023-04-08T18:00:28;10.40;;;8.48;;
30149;SDS011;16962;48.646;9.026;2023-04-08T18:03:19;15.18;;;10.52;;
30149;SDS011;16962;48.646;9.026;2023-04-08T18:06:06;13.02;;;10.25;;
30149;SDS011;16962;48.646;9.026;2023-04-08T18:08:54;12.40;;;9.98;;
30149;SDS011;16962;48.646;9.026;2023-04-08T18:11:42;12.48;;;9.82;;
30149;SDS011;16962;48.646;9.026;2023-04-08T18:14:29;13.10;;;10.05;;
30149;SDS011;16962;48.646;9.026;2023-04-08T18:17:20;15.82;;;10.85;;
30149;SDS011;16962;48.646;9.026;2023-04-08T18:20:08;15.93;;;11.23;;
30149;SDS011;16962;48.646;9.026;2023-04-08T18:22:55;16.45;;;11.43;;
30149;SDS011;16962;48.646;9.026;2023-04-08T18:25:46;13.20;;;10.07;;
30149;SDS011;16962;48.646;9.026;2023-04-08T18:28:36;14.32;;;9.93;;
30149;SDS011;16962;48.646;9.026;2023-04-08T18:31:23;15.20;;;10.98;;
30149;SDS011;16962;48.646;9.026;2023-04-08T18:34:11;13.40;;;10.85;;
30149;SDS011;16962;48.646;9.026;2023-04-08T18:36:58;17.27;;;10.32;;
30149;SDS011;16962;48.646;9.026;2023-04-08T18:39:46;20.15;;;15.00;;
30149;SDS011;16962;48.646;9.026;2023-04-08T18:42:34;18.20;;;13.10;;
30149;SDS011;16962;48.646;9.026;2023-04-08T18:45:22;18.30;;;13.85;;
30149;SDS011;16962;48.646;9.026;2023-04-08T18:48:10;16.00;;;12.63;;
30149;SDS011;16962;48.646;9.026;2023-04-08T18:50:58;16.63;;;13.07;;
30149;SDS011;16962;48.646;9.026;2023-04-08T18:53:47;18.75;;;13.98;;
30149;SDS011;16962;48.646;9.026;2023-04-08T18:56:35;23.40;;;12.88;;
30149;SDS011;16962;48.646;9.026;2023-04-08T18:59:23;21.25;;;14.73;;
30149;SDS011;16962;48.646;9.026;2023-04-08T19:02:12;24.95;;;17.20;;
30149;SDS011;16962;48.646;9.026;2023-04-08T19:05:00;31.77;;;19.45;;
30149;SDS011;16962;48.646;9.026;2023-04-08T19:07:47;21.23;;;15.27;;
30149;SDS011;16962;48.646;9.026;2023-04-08T19:10:34;19.67;;;12.65;;
30149;SDS011;16962;48.646;9.026;2023-04-08T19:13:23;17.63;;;12.10;;
30149;SDS011;16962;48.646;9.026;2023-04-08T19:16:11;15.55;;;12.55;;
30149;SDS011;16962;48.646;9.026;2023-04-08T19:18:59;16.75;;;12.57;;
30149;SDS011;16962;48.646;9.026;2023-04-08T19:21:46;17.75;;;12.55;;
30149;SDS011;16962;48.646;9.026;2023-04-08T19:24:34;15.50;;;11.80;;
30149;SDS011;16962;48.646;9.026;2023-04-08T19:27:22;13.70;;;11.27;;
30149;SDS011;16962;48.646;9.026;2023-04-08T19:30:10;14.45;;;11.43;;
30149;SDS011;16962;48.646;9.026;2023-04-08T19:32:57;16.30;;;11.85;;
30149;SDS011;16962;48.646;9.026;2023-04-08T19:35:46;15.32;;;11.38;;
30149;SDS011;16962;48.646;9.026;2023-04-08T19:38:35;19.95;;;11.68;;
30149;SDS011;16962;48.646;9.026;2023-04-08T19:41:22;18.02;;;11.43;;
30149;SDS011;16962;48.646;9.026;2023-04-08T19:44:10;17.67;;;11.73;;
30149;SDS011;16962;48.646;9.026;2023-04-08T19:47:00;15.95;;;11.82;;
30149;SDS011;16962;48.646;9.026;2023-04-08T19:49:50;17.83;;;12.18;;
30149;SDS011;16962;48.646;9.026;2023-04-08T19:52:37;15.95;;;12.52;;
30149;SDS011;16962;48.646;9.026;2023-04-08T19:55:25;15.75;;;11.30;;
30149;SDS011;16962;48.646;9.026;2023-04-08T19:58:12;13.82;;;10.77;;
30149;SDS011;16962;48.646;9.026;2023-04-08T20:00:59;17.65;;;12.55;;
30149;SDS011;16962;48.646;9.026;2023-04-08T20:03:48;14.30;;;12.27;;
30149;SDS011;16962;48.646;9.026;2023-04-08T20:06:36;15.32;;;12.55;;
30149;SDS011;16962;48.646;9.026;2023-04-08T20:09:24;14.98;;;11.70;;
30149;SDS011;16962;48.646;9.026;2023-04-08T20:12:15;15.70;;;12.10;;
30149;SDS011;16962;48.646;9.026;2023-04-08T20:15:03;22.00;;;13.93;;
30149;SDS011;16962;48.646;9.026;2023-04-08T20:17:54;21.30;;;16.13;;
30149;SDS011;16962;48.646;9.026;2023-04-08T20:20:42;19.05;;;14.23;;
30149;SDS011;16962;48.646;9.026;2023-04-08T20:23:29;19.48;;;13.93;;
30149;SDS011;16962;48.646;9.026;2023-04-08T20:26:17;20.02;;;13.60;;
30149;SDS011;16962;48.646;9.026;2023-04-08T20:29:04;19.10;;;14.15;;
30149;SDS011;16962;48.646;9.026;2023-04-08T20:31:52;30.58;;;17.48;;
30149;SDS011;16962;48.646;9.026;2023-04-08T20:34:39;22.20;;;16.73;;
30149;SDS011;16962;48.646;9.026;2023-04-08T20:37:27;23.25;;;16.35;;
30149;SDS011;16962;48.646;9.026;2023-04-08T20:40:17;18.88;;;14.68;;
30149;SDS011;16962;48.646;9.026;2023-04-08T20:43:05;19.58;;;14.90;;
30149;SDS011;16962;48.646;9.026;2023-04-08T20:45:53;20.27;;;14.77;;
30149;SDS011;16962;48.646;9.026;2023-04-08T20:48:40;23.23;;;15.50;;
30149;SDS011;16962;48.646;9.026;2023-04-08T20:51:29;23.55;;;15.60;;
30149;SDS011;16962;48.646;9.026;2023-04-08T20:54:19;24.10;;;17.05;;
30149;SDS011;16962;48.646;9.026;2023-04-08T20:57:07;23.95;;;16.58;;
30149;SDS011;16962;48.646;9.026;2023-04-08T20:59:54;22.83;;;16.75;;
30149;SDS011;16962;48.646;9.026;2023-04-08T21:02:45;27.17;;;17.75;;
30149;SDS011;16962;48.646;9.026;2023-04-08T21:05:36;24.98;;;16.60;;
30149;SDS011;16962;48.646;9.026;2023-04-08T21:08:24;24.42;;;15.93;;
30149;SDS011;16962;48.646;9.026;2023-04-08T21:11:11;20.27;;;14.40;;
30149;SDS011;16962;48.646;9.026;2023-04-08T21:13:58;15.52;;;12.52;;
30149;SDS011;16962;48.646;9.026;2023-04-08T21:16:46;17.08;;;13.18;;
30149;SDS011;16962;48.646;9.026;2023-04-08T21:19:33;19.08;;;13.65;;
30149;SDS011;16962;48.646;9.026;2023-04-08T21:22:24;17.17;;;13.23;;
30149;SDS011;16962;48.646;9.026;2023-04-08T21:25:21;17.65;;;13.48;;
30149;SDS011;16962;48.646;9.026;2023-04-08T21:28:12;16.05;;;12.95;;
30149;SDS011;16962;48.646;9.026;2023-04-08T21:31:09;18.42;;;13.95;;
30149;SDS011;16962;48.646;9.026;2023-04-08T21:33:58;16.13;;;13.52;;
30149;SDS011;16962;48.646;9.026;2023-04-08T21:37:29;20.45;;;15.05;;
30149;SDS011;16962;48.646;9.026;2023-04-08T21:40:24;17.73;;;13.50;;
30149;SDS011;16962;48.646;9.026;2023-04-08T21:43:22;20.92;;;15.50;;
30149;SDS011;16962;48.646;9.026;2023-04-08T21:46:13;25.45;;;16.05;;
30149;SDS011;16962;48.646;9.026;2023-04-08T21:49:03;21.27;;;14.82;;
30149;SDS011;16962;48.646;9.026;2023-04-08T21:51:59;23.48;;;16.92;;
30149;SDS011;16962;48.646;9.026;2023-04-08T21:55:09;16.92;;;12.90;;
30149;SDS011;16962;48.646;9.026;2023-04-08T21:57:57;23.13;;;16.55;;
30149;SDS011;16962;48.646;9.026;2023-04-08T22:00:45;23.38;;;17.17;;
30149;SDS011;16962;48.646;9.026;2023-04-08T22:03:34;24.45;;;17.65;;
30149;SDS011;16962;48.646;9.026;2023-04-08T22:06:22;22.85;;;17.08;;
30149;SDS011;16962;48.646;9.026;2023-04-08T22:09:18;23.88;;;17.75;;
30149;SDS011;16962;48.646;9.026;2023-04-08T22:12:07;27.50;;;18.98;;
30149;SDS011;16962;48.646;9.026;2023-04-08T22:14:56;29.80;;;19.70;;
30149;SDS011;16962;48.646;9.026;2023-04-08T22:17:44;28.40;;;18.58;;
30149;SDS011;16962;48.646;9.026;2023-04-08T22:20:36;26.52;;;19.48;;
30149;SDS011;16962;48.646;9.026;2023-04-08T22:23:24;26.02;;;18.50;;
30149;SDS011;16962;48.646;9.026;2023-04-08T22:26:11;27.25;;;19.38;;
30149;SDS011;16962;48.646;9.026;2023-04-08T22:29:01;28.45;;;20.40;;
30149;SDS011;16962;48.646;9.026;2023-04-08T22:31:48;32.65;;;22.80;;
30149;SDS011;16962;48.646;9.026;2023-04-08T22:34:40;33.47;;;22.35;;
30149;SDS011;16962;48.646;9.026;2023-04-08T22:37:28;32.67;;;22.92;;
30149;SDS011;16962;48.646;9.026;2023-04-08T22:40:18;35.25;;;23.48;;
30149;SDS011;16962;48.646;9.026;2023-04-08T22:43:07;34.20;;;23.42;;
30149;SDS011;16962;48.646;9.026;2023-04-08T22:45:56;36.72;;;24.27;;
30149;SDS011;16962;48.646;9.026;2023-04-08T22:48:44;35.33;;;24.35;;
30149;SDS011;16962;48.646;9.026;2023-04-08T22:51:31;35.58;;;25.13;;
30149;SDS011;16962;48.646;9.026;2023-04-08T22:54:19;41.47;;;25.88;;
30149;SDS011;16962;48.646;9.026;2023-04-08T22:57:08;34.38;;;23.85;;
30149;SDS011;16962;48.646;9.026;2023-04-08T22:59:56;34.80;;;24.27;;
30149;SDS011;16962;48.646;9.026;2023-04-08T23:02:44;39.35;;;26.55;;
30149;SDS011;16962;48.646;9.026;2023-04-08T23:05:32;39.22;;;27.17;;
30149;SDS011;16962;48.646;9.026;2023-04-08T23:08:20;40.85;;;27.80;;
30149;SDS011;16962;48.646;9.026;2023-04-08T23:11:07;45.45;;;29.00;;
30149;SDS011;16962;48.646;9.026;2023-04-08T23:13:54;42.85;;;29.30;;
30149;SDS011;16962;48.646;9.026;2023-04-08T23:16:42;43.03;;;29.42;;
30149;SDS011;16962;48.646;9.026;2023-04-08T23:19:29;46.20;;;29.02;;
30149;SDS011;16962;48.646;9.026;2023-04-08T23:22:16;43.55;;;30.00;;
30149;SDS011;16962;48.646;9.026;2023-04-08T23:25:06;40.13;;;27.27;;
30149;SDS011;16962;48.646;9.026;2023-04-08T23:27:54;42.95;;;29.63;;
30149;SDS011;16962;48.646;9.026;2023-04-08T23:30:41;39.35;;;27.10;;
30149;SDS011;16962;48.646;9.026;2023-04-08T23:33:28;36.78;;;26.17;;
30149;SDS011;16962;48.646;9.026;2023-04-08T23:36:16;37.20;;;25.38;;
30149;SDS011;16962;48.646;9.026;2023-04-08T23:39:03;35.05;;;24.88;;
30149;SDS011;16962;48.646;9.026;2023-04-08T23:41:51;31.60;;;23.05;;
30149;SDS011;16962;48.646;9.026;2023-04-08T23:44:38;34.42;;;24.17;;
30149;SDS011;16962;48.646;9.026;2023-04-08T23:47:28;34.80;;;24.67;;
30149;SDS011;16962;48.646;9.026;2023-04-08T23:50:16;31.17;;;22.65;;
30149;SDS011;16962;48.646;9.026;2023-04-08T23:53:08;31.83;;;22.52;;
30149;SDS011;16962;48.646;9.026;2023-04-08T23:56:07;33.75;;;22.70;;
30149;SDS011;16962;48.646;9.026;2023-04-08T23:58:55;30.58;;;22.60;;
